Time;durP1;ratioP1;P1;durP2;ratioP2;P2;SDS_P1;SDS_P2;PMS_P1;PMS_P2;Temp;Humidity;BMP_temperature;BMP_pressure;BME280_temperature;BME280_humidity;BME280_pressure;Samples;Min_cycle;Max_cycle;Signal;HPM_P1;HPM_P2
2024/02/11 00:02:13;;;;;;;24.30;11.00;;;;;;;;;;5051647;28;20056;-62
2024/02/11 00:04:47;;;;;;;30.42;10.93;;;;;;;;;;5048154;28;20060;-63
2024/02/11 00:07:14;;;;;;;;;;;;;;;;;;5050314;28;20056;-55
2024/02/11 00:09:48;;;;;;;28.70;11.23;;;;;;;;;;5053706;28;19924;-56
2024/02/11 00:12:16;;;;;;;20.23;9.77;;;;;;;;;;5049854;28;20057;-53
2024/02/11 00:14:44;;;;;;;27.13;9.90;;;;;;;;;;5056622;28;20083;-54
2024/02/11 00:17:37;;;;;;;26.00;10.40;;;;;;;;;;5050904;28;20295;-56
2024/02/11 00:20:15;;;;;;;22.35;10.38;;;;;;;;;;5050019;28;20573;-52
2024/02/11 00:22:48;;;;;;;25.13;9.43;;;;;;;;;;5050325;28;20583;-53
2024/02/11 00:25:16;;;;;;;26.48;9.88;;;;;;;;;;5051671;28;20057;-54
2024/02/11 00:27:49;;;;;;;26.08;9.93;;;;;;;;;;5051106;28;20044;-52
2024/02/11 00:30:23;;;;;;;28.38;11.18;;;;;;;;;;5052454;28;20541;-54
2024/02/11 00:32:56;;;;;;;35.20;11.93;;;;;;;;;;5053864;28;20149;-71
2024/02/11 00:35:31;;;;;;;27.20;10.07;;;;;;;;;;5051625;28;20056;-62
2024/02/11 00:38:00;;;;;;;;;;;;;;;;;;5054984;28;20052;-62
2024/02/11 00:40:28;;;;;;;27.02;10.82;;;;;;;;;;5053756;28;19924;-62
2024/02/11 00:43:02;;;;;;;33.90;11.07;;;;;;;;;;5053413;28;20067;-62
2024/02/11 00:45:29;;;;;;;20.92;9.50;;;;;;;;;;5048011;28;20056;-63
2024/02/11 00:48:04;;;;;;;23.35;8.98;;;;;;;;;;5051273;28;20060;-63
2024/02/11 00:50:32;;;;;;;24.65;10.18;;;;;;;;;;5051179;28;20052;-55
2024/02/11 00:53:05;;;;;;;24.38;10.30;;;;;;;;;;5046356;28;20056;-52
2024/02/11 00:55:57;;;;;;;26.00;10.43;;;;;;;;;;5048623;28;20052;-54
2024/02/11 00:58:45;;;;;;;20.55;9.75;;;;;;;;;;5049890;28;20060;-55
2024/02/11 01:01:40;;;;;;;24.95;9.27;;;;;;;;;;5049540;28;20049;-56
2024/02/11 01:04:26;;;;;;;28.55;9.57;;;;;;;;;;5051029;28;20049;-61
2024/02/11 01:07:19;;;;;;;19.85;8.48;;;;;;;;;;5049754;28;20530;-61
2024/02/11 01:10:14;;;;;;;16.67;8.63;;;;;;;;;;5049896;28;20071;-61
2024/02/11 01:13:07;;;;;;;20.60;6.78;;;;;;;;;;5051088;28;20048;-61
2024/02/11 01:15:55;;;;;;;14.68;7.70;;;;;;;;;;5052486;28;20131;-61
2024/02/11 01:18:48;;;;;;;21.02;8.30;;;;;;;;;;5047809;28;20480;-61
2024/02/11 01:21:49;;;;;;;22.30;8.27;;;;;;;;;;5049814;28;20053;-62
2024/02/11 01:24:36;;;;;;;20.17;8.32;;;;;;;;;;5048943;28;20085;-61
2024/02/11 01:27:30;;;;;;;16.77;7.22;;;;;;;;;;5051221;28;20645;-62
2024/02/11 01:30:18;;;;;;;18.83;8.48;;;;;;;;;;5055169;28;20056;-63
2024/02/11 01:33:11;;;;;;;16.90;7.85;;;;;;;;;;5054737;28;20084;-62
2024/02/11 01:35:59;;;;;;;12.07;6.22;;;;;;;;;;5052444;28;20059;-61
2024/02/11 01:38:53;;;;;;;18.48;7.65;;;;;;;;;;5056499;28;20106;-62
2024/02/11 01:41:46;;;;;;;16.25;7.53;;;;;;;;;;5052125;28;20052;-61
2024/02/11 01:44:40;;;;;;;13.15;6.85;;;;;;;;;;5054613;28;20064;-62
2024/02/11 01:47:29;;;;;;;15.43;7.00;;;;;;;;;;5050652;28;20144;-70
2024/02/11 01:50:22;;;;;;;12.93;6.95;;;;;;;;;;5050421;28;20059;-70
2024/02/11 01:53:15;;;;;;;13.10;6.95;;;;;;;;;;5044567;28;20645;-69
2024/02/11 01:56:09;;;;;;;15.23;7.57;;;;;;;;;;5051089;28;20096;-70
2024/02/11 01:58:57;;;;;;;11.70;6.40;;;;;;;;;;5054282;28;20122;-61
2024/02/11 02:01:51;;;;;;;11.57;6.00;;;;;;;;;;5055419;28;20475;-62
2024/02/11 02:04:40;;;;;;;12.38;6.35;;;;;;;;;;5055041;28;20053;-62
2024/02/11 02:07:34;;;;;;;15.43;5.60;;;;;;;;;;5053840;28;20080;-63
2024/02/11 02:10:21;;;;;;;16.67;6.47;;;;;;;;;;5056006;28;20048;-63
2024/02/11 02:13:14;;;;;;;11.18;5.38;;;;;;;;;;5055856;28;20052;-62
2024/02/11 02:16:02;;;;;;;10.38;5.75;;;;;;;;;;5053081;28;20088;-70
2024/02/11 02:19:08;;;;;;;23.50;7.00;;;;;;;;;;5054962;28;20052;-61
2024/02/11 02:22:02;;;;;;;12.35;6.78;;;;;;;;;;5053243;28;22010;-62
2024/02/11 02:24:56;;;;;;;13.52;6.65;;;;;;;;;;5053439;28;20057;-62
2024/02/11 02:27:44;;;;;;;12.52;6.40;;;;;;;;;;5053752;28;20500;-63
2024/02/11 02:30:37;;;;;;;18.92;7.45;;;;;;;;;;5061476;28;20107;-62
2024/02/11 02:33:36;;;;;;;15.15;6.70;;;;;;;;;;5058343;28;20052;-58
2024/02/11 02:36:22;;;;;;;14.00;6.10;;;;;;;;;;5058982;28;20052;-56
2024/02/11 02:39:16;;;;;;;16.05;6.40;;;;;;;;;;5058204;28;20060;-56
2024/02/11 02:42:03;;;;;;;14.52;5.93;;;;;;;;;;5059937;28;20056;-56
2024/02/11 02:44:57;;;;;;;11.13;5.90;;;;;;;;;;5059279;28;20069;-63
2024/02/11 02:47:46;;;;;;;14.18;6.85;;;;;;;;;;5056277;28;20049;-55
2024/02/11 02:50:40;;;;;;;16.60;7.10;;;;;;;;;;5052815;28;20057;-54
2024/02/11 02:53:26;;;;;;;11.75;5.78;;;;;;;;;;5055381;28;20255;-52
2024/02/11 02:56:19;;;;;;;14.55;6.97;;;;;;;;;;5054722;28;20534;-53
2024/02/11 02:59:08;;;;;;;12.75;6.07;;;;;;;;;;5053531;28;20503;-53
2024/02/11 03:02:03;;;;;;;15.15;6.47;;;;;;;;;;5053682;28;20158;-53
2024/02/11 03:04:51;;;;;;;9.13;5.25;;;;;;;;;;5057382;28;20145;-61
2024/02/11 03:07:45;;;;;;;14.00;6.85;;;;;;;;;;5055653;28;20075;-60
2024/02/11 03:10:33;;;;;;;15.88;6.22;;;;;;;;;;5053929;28;20151;-61
2024/02/11 03:13:26;;;;;;;13.00;4.25;;;;;;;;;;5053893;28;20055;-62
2024/02/11 03:16:16;;;;;;;7.32;4.25;;;;;;;;;;5052648;28;20144;-62
2024/02/11 03:19:26;;;;;;;9.50;4.85;;;;;;;;;;5055959;28;20067;-61
2024/02/11 03:22:19;;;;;;;14.33;6.70;;;;;;;;;;5053564;28;20072;-61
2024/02/11 03:25:14;;;;;;;13.60;5.15;;;;;;;;;;5055342;28;20052;-61
2024/02/11 03:28:07;;;;;;;15.10;6.72;;;;;;;;;;5053859;28;20557;-62
2024/02/11 03:31:01;;;;;;;17.90;7.00;;;;;;;;;;5054888;28;20154;-63
2024/02/11 03:33:55;;;;;;;15.43;6.25;;;;;;;;;;5053960;28;20052;-62
2024/02/11 03:36:43;;;;;;;17.83;7.97;;;;;;;;;;5056221;28;20060;-62
2024/02/11 03:39:36;;;;;;;17.08;7.50;;;;;;;;;;5057502;28;20351;-62
2024/02/11 03:42:24;;;;;;;17.60;8.55;;;;;;;;;;5059227;28;20044;-54
2024/02/11 03:45:18;;;;;;;17.88;7.82;;;;;;;;;;5054723;28;20048;-61
2024/02/11 03:48:07;;;;;;;19.77;7.40;;;;;;;;;;5056102;28;21002;-60
2024/02/11 03:51:00;;;;;;;20.23;8.73;;;;;;;;;;5053043;28;20052;-60
2024/02/11 03:53:46;;;;;;;19.10;8.32;;;;;;;;;;5055619;28;20051;-60
2024/02/11 03:56:42;;;;;;;18.77;8.30;;;;;;;;;;5052576;28;20141;-61
2024/02/11 03:59:30;;;;;;;17.63;8.43;;;;;;;;;;5054172;28;20105;-53
2024/02/11 04:02:23;;;;;;;13.48;5.40;;;;;;;;;;5057369;28;20048;-55
2024/02/11 04:05:15;;;;;;;18.98;8.70;;;;;;;;;;5052299;28;20092;-54
2024/02/11 04:08:08;;;;;;;15.80;6.57;;;;;;;;;;5055331;28;20058;-55
2024/02/11 04:10:56;;;;;;;19.00;7.95;;;;;;;;;;5052339;28;20084;-52
2024/02/11 04:13:48;;;;;;;18.42;8.15;;;;;;;;;;5051473;28;20049;-63
2024/02/11 04:16:43;;;;;;;19.38;7.35;;;;;;;;;;5049014;28;20057;-60
2024/02/11 04:19:48;;;;;;;16.65;8.10;;;;;;;;;;5047033;28;20110;-62
2024/02/11 04:22:43;;;;;;;17.80;7.25;;;;;;;;;;5029711;28;20064;-62
2024/02/11 04:25:41;;;;;;;14.75;7.00;;;;;;;;;;5025761;28;20183;-62
2024/02/11 04:28:26;;;;;;;16.58;7.80;;;;;;;;;;5028573;28;20049;-61
2024/02/11 04:31:21;;;;;;;16.83;8.65;;;;;;;;;;5029938;28;20462;-61
2024/02/11 04:34:12;;;;;;;14.32;7.10;;;;;;;;;;5036421;28;20072;-60
2024/02/11 04:37:06;;;;;;;17.48;7.10;;;;;;;;;;5035243;28;20061;-60
2024/02/11 04:39:58;;;;;;;15.13;7.55;;;;;;;;;;5034405;28;20126;-69
2024/02/11 04:42:46;;;;;;;16.60;7.72;;;;;;;;;;5035401;28;20064;-62
2024/02/11 04:45:41;;;;;;;19.10;7.18;;;;;;;;;;5037541;28;20569;-62
2024/02/11 04:48:27;;;;;;;8.30;4.30;;;;;;;;;;5036116;28;20053;-62
2024/02/11 04:51:22;;;;;;;15.15;6.82;;;;;;;;;;5031910;28;20072;-61
2024/02/11 04:54:09;;;;;;;16.23;7.03;;;;;;;;;;5031894;28;20135;-61
2024/02/11 04:57:03;;;;;;;18.42;7.90;;;;;;;;;;5033600;28;20068;-53
2024/02/11 04:59:51;;;;;;;17.17;8.30;;;;;;;;;;5030962;28;20106;-49
2024/02/11 05:02:44;;;;;;;14.75;6.20;;;;;;;;;;5031292;28;20060;-51
2024/02/11 05:05:31;;;;;;;20.77;8.70;;;;;;;;;;5034414;28;20150;-51
2024/02/11 05:08:27;;;;;;;21.25;6.70;;;;;;;;;;5033920;28;20056;-70
2024/02/11 05:11:13;;;;;;;19.45;8.23;;;;;;;;;;5032380;28;20613;-70
2024/02/11 05:14:07;;;;;;;16.00;6.13;;;;;;;;;;5031947;28;20049;-70
2024/02/11 05:16:55;;;;;;;17.58;6.90;;;;;;;;;;5032998;28;20110;-70
2024/02/11 05:20:11;;;;;;;18.55;6.22;;;;;;;;;;5038887;28;20052;-69
2024/02/11 05:22:57;;;;;;;19.60;7.65;;;;;;;;;;5050532;28;20070;-70
2024/02/11 05:25:51;;;;;;;15.68;6.72;;;;;;;;;;5051566;28;20056;-61
2024/02/11 05:28:39;;;;;;;9.38;5.03;;;;;;;;;;5051390;28;20053;-62
2024/02/11 05:31:32;;;;;;;14.45;7.68;;;;;;;;;;5051926;28;20504;-61
2024/02/11 05:34:19;;;;;;;14.98;4.70;;;;;;;;;;5051526;28;20059;-61
2024/02/11 05:37:13;;;;;;;16.02;8.20;;;;;;;;;;5058501;28;20058;-61
2024/02/11 05:40:00;;;;;;;12.68;6.90;;;;;;;;;;5058773;28;20052;-61
2024/02/11 05:42:54;;;;;;;12.35;5.93;;;;;;;;;;5054512;28;20556;-62
2024/02/11 05:45:41;;;;;;;13.98;6.43;;;;;;;;;;5057618;28;20048;-62
2024/02/11 05:48:35;;;;;;;16.27;6.60;;;;;;;;;;5054753;28;20051;-62
2024/02/11 05:51:22;;;;;;;17.75;7.90;;;;;;;;;;5055746;28;20964;-62
2024/02/11 05:54:16;;;;;;;20.08;7.32;;;;;;;;;;5052923;28;20526;-61
2024/02/11 05:57:09;;;;;;;14.98;7.15;;;;;;;;;;5055446;28;20064;-61
2024/02/11 05:59:57;;;;;;;12.20;5.97;;;;;;;;;;5056533;28;20052;-61
2024/02/11 06:02:53;;;;;;;13.80;6.45;;;;;;;;;;5054848;28;20454;-61
2024/02/11 06:05:40;;;;;;;17.23;6.60;;;;;;;;;;5055907;28;20048;-54
2024/02/11 06:08:35;;;;;;;12.35;5.13;;;;;;;;;;5054127;28;20045;-61
2024/02/11 06:11:25;;;;;;;12.90;6.57;;;;;;;;;;5057760;28;20057;-62
2024/02/11 06:14:17;;;;;;;15.98;6.38;;;;;;;;;;5055933;28;20060;-63
2024/02/11 06:17:06;;;;;;;13.75;6.65;;;;;;;;;;5057710;28;20126;-61
2024/02/11 06:20:15;;;;;;;13.80;6.68;;;;;;;;;;5057260;28;20056;-61
2024/02/11 06:23:10;;;;;;;7.55;3.72;;;;;;;;;;5058465;28;20574;-70
2024/02/11 06:26:04;;;;;;;12.05;4.00;;;;;;;;;;5052301;28;20064;-70
2024/02/11 06:28:51;;;;;;;12.27;6.35;;;;;;;;;;5051309;28;20053;-70
2024/02/11 06:31:44;;;;;;;10.20;6.10;;;;;;;;;;5055989;28;20458;-69
2024/02/11 06:34:32;;;;;;;13.88;6.15;;;;;;;;;;5056207;28;20054;-70
2024/02/11 06:37:25;;;;;;;9.80;5.60;;;;;;;;;;5057106;28;20147;-72
2024/02/11 06:40:17;;;;;;;13.15;5.97;;;;;;;;;;5059284;28;20523;-61
2024/02/11 06:43:11;;;;;;;10.30;5.13;;;;;;;;;;5057685;28;20067;-61
2024/02/11 06:45:59;;;;;;;10.52;5.55;;;;;;;;;;5055451;28;20080;-64
2024/02/11 06:48:52;;;;;;;11.00;5.90;;;;;;;;;;5059987;28;20111;-61
2024/02/11 06:51:40;;;;;;;10.93;5.63;;;;;;;;;;5055221;28;20053;-53
2024/02/11 06:54:33;;;;;;;11.75;5.88;;;;;;;;;;5054295;28;20060;-55
2024/02/11 06:57:29;;;;;;;12.00;5.72;;;;;;;;;;5048806;28;20114;-53
2024/02/11 07:00:22;;;;;;;9.60;5.30;;;;;;;;;;5053550;28;20052;-56
2024/02/11 07:03:10;;;;;;;13.20;5.50;;;;;;;;;;5049796;28;20060;-55
2024/02/11 07:06:05;;;;;;;8.80;5.22;;;;;;;;;;5049716;28;20064;-53
2024/02/11 07:08:51;;;;;;;;;;;;;;;;;;5054730;28;20060;-51
2024/02/11 07:11:44;;;;;;;10.68;5.18;;;;;;;;;;5052450;28;19924;-56
2024/02/11 07:14:39;;;;;;;12.10;5.95;;;;;;;;;;5053381;28;20063;-52
2024/02/11 07:17:30;;;;;;;11.88;4.88;;;;;;;;;;5052247;28;20059;-54
2024/02/11 07:20:26;;;;;;;11.52;5.60;;;;;;;;;;5050395;28;20056;-61
2024/02/11 07:23:13;;;;;;;10.38;5.45;;;;;;;;;;5051303;28;20045;-62
2024/02/11 07:26:10;;;;;;;12.32;6.03;;;;;;;;;;5048323;28;20194;-62
2024/02/11 07:28:55;;;;;;;10.38;5.88;;;;;;;;;;5050042;28;20049;-62
2024/02/11 07:31:50;;;;;;;15.40;7.03;;;;;;;;;;5054415;28;20056;-62
2024/02/11 07:34:45;;;;;;;13.23;6.78;;;;;;;;;;5050491;28;20203;-62
2024/02/11 07:37:38;;;;;;;15.35;5.82;;;;;;;;;;5041846;28;20060;-62
2024/02/11 07:40:25;;;;;;;10.45;5.20;;;;;;;;;;5051475;28;20063;-54
2024/02/11 07:43:18;;;;;;;11.80;5.65;;;;;;;;;;5054794;28;20067;-52
2024/02/11 07:45:46;;;;;;;12.18;5.75;;;;;;;;;;5054397;28;20056;-52
2024/02/11 07:48:21;;;;;;;11.65;5.93;;;;;;;;;;5054536;28;20076;-52
2024/02/11 07:50:48;;;;;;;7.53;4.40;;;;;;;;;;5053238;28;20511;-50
2024/02/11 07:53:21;;;;;;;13.77;5.47;;;;;;;;;;5052647;28;20072;-52
2024/02/11 07:55:55;;;;;;;7.55;4.72;;;;;;;;;;5051267;28;20058;-62
2024/02/11 07:58:43;;;;;;;9.13;5.75;;;;;;;;;;5052981;28;20048;-62
2024/02/11 08:01:37;;;;;;;11.23;6.18;;;;;;;;;;5049732;28;20055;-62
2024/02/11 08:04:24;;;;;;;14.25;5.68;;;;;;;;;;5049875;28;20060;-61
2024/02/11 08:07:17;;;;;;;9.52;4.70;;;;;;;;;;5051985;28;20392;-62
2024/02/11 08:10:07;;;;;;;13.73;6.35;;;;;;;;;;5048670;28;20051;-62
2024/02/11 08:12:59;;;;;;;9.70;5.75;;;;;;;;;;5049186;28;20057;-61
2024/02/11 08:15:46;;;;;;;10.60;5.15;;;;;;;;;;5051929;28;20064;-62
2024/02/11 08:18:42;;;;;;;11.02;6.10;;;;;;;;;;5044292;28;20048;-54
2024/02/11 08:21:40;;;;;;;9.65;5.18;;;;;;;;;;5049839;28;20476;-52
2024/02/11 08:24:29;;;;;;;13.38;7.32;;;;;;;;;;5050627;28;20060;-53
2024/02/11 08:27:23;;;;;;;13.90;6.35;;;;;;;;;;5052622;28;20041;-58
2024/02/11 08:30:12;;;;;;;13.93;6.85;;;;;;;;;;5052707;28;20072;-52
2024/02/11 08:33:04;;;;;;;10.00;4.85;;;;;;;;;;5053224;28;20048;-60
2024/02/11 08:35:52;;;;;;;11.68;5.40;;;;;;;;;;5048093;28;20052;-61
2024/02/11 08:38:43;;;;;;;16.13;6.03;;;;;;;;;;5048818;28;20532;-60
2024/02/11 08:41:31;;;;;;;10.68;5.95;;;;;;;;;;5049496;28;20075;-60
2024/02/11 08:44:24;;;;;;;12.20;5.88;;;;;;;;;;5048512;28;20060;-52
2024/02/11 08:47:18;;;;;;;8.45;4.68;;;;;;;;;;5046167;28;20117;-61
2024/02/11 08:50:14;;;;;;;14.57;5.97;;;;;;;;;;5050622;28;20052;-61
2024/02/11 08:53:00;;;;;;;12.40;6.05;;;;;;;;;;5048808;28;20057;-62
2024/02/11 08:55:55;;;;;;;11.60;6.70;;;;;;;;;;5048400;28;20075;-62
2024/02/11 08:58:48;;;;;;;14.88;6.78;;;;;;;;;;5050142;28;20091;-61
2024/02/11 09:01:36;;;;;;;15.10;7.18;;;;;;;;;;5049999;28;20049;-61
2024/02/11 09:04:29;;;;;;;16.30;7.15;;;;;;;;;;5054828;28;20064;-62
2024/02/11 09:07:24;;;;;;;16.52;7.43;;;;;;;;;;5044473;28;20123;-62
2024/02/11 09:10:14;;;;;;;16.02;7.38;;;;;;;;;;5048474;28;20084;-62
2024/02/11 09:13:06;;;;;;;17.40;7.53;;;;;;;;;;5043700;28;20053;-61
2024/02/11 09:16:04;;;;;;;11.65;5.55;;;;;;;;;;5043830;28;20060;-62
2024/02/11 09:18:52;;;;;;;16.38;7.65;;;;;;;;;;5046320;28;20821;-62
2024/02/11 09:21:52;;;;;;;12.70;6.47;;;;;;;;;;5045644;28;20194;-64
2024/02/11 09:24:46;;;;;;;11.93;5.45;;;;;;;;;;5045613;28;20057;-69
2024/02/11 09:27:41;;;;;;;12.07;6.57;;;;;;;;;;5045674;28;20048;-69
2024/02/11 09:30:27;;;;;;;12.95;6.90;;;;;;;;;;5042527;28;20064;-69
2024/02/11 09:33:21;;;;;;;17.30;7.88;;;;;;;;;;5043990;28;20045;-69
2024/02/11 09:36:10;;;;;;;16.05;7.03;;;;;;;;;;5049737;28;20059;-69
2024/02/11 09:39:03;;;;;;;13.45;7.38;;;;;;;;;;5050939;28;20060;-68
2024/02/11 09:41:50;;;;;;;14.98;7.57;;;;;;;;;;5047437;28;20745;-62
2024/02/11 09:44:45;;;;;;;15.82;6.78;;;;;;;;;;5046165;28;20421;-63
2024/02/11 09:47:39;;;;;;;13.85;7.70;;;;;;;;;;5033591;28;20123;-62
2024/02/11 09:50:27;;;;;;;14.05;6.75;;;;;;;;;;5046065;28;20045;-62
2024/02/11 09:53:22;;;;;;;15.73;8.05;;;;;;;;;;5045406;28;20711;-62
2024/02/11 09:58:53;;;;;;;17.77;8.05;;;;;;;;;;4975110;28;21432;-50
2024/02/11 10:01:28;;;;;;;16.70;8.50;;;;;;;;;;4994844;28;20058;-49
2024/02/11 10:04:17;;;;;;;17.23;8.93;;;;;;;;;;5003812;28;20551;-47
2024/02/11 10:07:23;;;;;;;16.48;8.68;;;;;;;;;;5013214;28;20411;-47
2024/02/11 10:10:17;;;;;;;26.70;9.40;;;;;;;;;;5011975;28;20057;-50
2024/02/11 10:13:29;;;;;;;18.40;7.88;;;;;;;;;;5010959;28;20730;-61
2024/02/11 10:16:05;;;;;;;13.27;5.50;;;;;;;;;;5009698;28;20081;-62
2024/02/11 10:18:55;;;;;;;16.70;6.72;;;;;;;;;;5012181;28;20049;-63
2024/02/11 10:21:45;;;;;;;15.27;6.57;;;;;;;;;;5015628;28;20050;-61
2024/02/11 10:24:53;;;;;;;11.77;6.75;;;;;;;;;;5013681;28;20054;-61
2024/02/11 10:27:42;;;;;;;16.83;8.18;;;;;;;;;;5014008;28;20051;-62
2024/02/11 10:30:34;;;;;;;18.35;7.05;;;;;;;;;;5009596;28;20108;-62
2024/02/11 10:33:02;;;;;;;19.00;8.07;;;;;;;;;;5014357;28;20053;-52
2024/02/11 10:35:37;;;;;;;17.08;8.65;;;;;;;;;;5015101;28;20494;-64
2024/02/11 10:38:25;;;;;;;18.67;7.80;;;;;;;;;;5015768;28;20064;-63
2024/02/11 10:41:19;;;;;;;16.88;8.73;;;;;;;;;;5015964;28;20111;-63
2024/02/11 10:44:06;;;;;;;18.83;8.52;;;;;;;;;;5016829;28;20064;-63
2024/02/11 10:47:01;;;;;;;18.35;8.75;;;;;;;;;;5017471;28;20085;-63
2024/02/11 10:49:48;;;;;;;14.02;7.82;;;;;;;;;;5016391;28;20602;-60
2024/02/11 10:52:43;;;;;;;12.10;5.75;;;;;;;;;;5015763;28;20546;-62
2024/02/11 10:55:40;;;;;;;17.60;8.15;;;;;;;;;;5015321;28;20144;-61
2024/02/11 10:58:44;;;;;;;21.38;9.48;;;;;;;;;;5008956;28;20141;-62
2024/02/11 11:01:34;;;;;;;15.60;8.32;;;;;;;;;;5011439;28;20058;-62
2024/02/11 11:04:29;;;;;;;13.52;7.35;;;;;;;;;;5006380;28;20054;-61
2024/02/11 11:07:20;;;;;;;22.23;9.23;;;;;;;;;;5011511;28;20067;-47
2024/02/11 11:10:11;;;;;;;14.88;7.28;;;;;;;;;;5010652;28;21274;-63
2024/02/11 11:12:46;;;;;;;15.23;7.95;;;;;;;;;;5012077;28;20748;-63
2024/02/11 11:15:42;;;;;;;17.08;8.10;;;;;;;;;;5014396;28;20108;-63
2024/02/11 11:18:36;;;;;;;13.43;7.60;;;;;;;;;;5011672;28;20057;-63
2024/02/11 11:21:30;;;;;;;14.05;6.65;;;;;;;;;;5010995;28;20077;-63
2024/02/11 11:24:18;;;;;;;22.88;9.57;;;;;;;;;;5012403;28;20397;-62
2024/02/11 11:27:16;;;;;;;17.85;8.63;;;;;;;;;;5010087;28;20057;-57
2024/02/11 11:30:01;;;;;;;17.25;8.55;;;;;;;;;;5011598;28;20065;-60
2024/02/11 11:32:58;;;;;;;18.08;8.68;;;;;;;;;;5012338;28;20085;-58
2024/02/11 11:35:43;;;;;;;16.48;8.50;;;;;;;;;;5012403;28;20053;-58
2024/02/11 11:38:37;;;;;;;15.77;8.18;;;;;;;;;;5013290;28;20771;-60
2024/02/11 11:41:25;;;;;;;19.50;7.03;;;;;;;;;;5018265;28;20202;-61
2024/02/11 11:44:22;;;;;;;15.07;6.80;;;;;;;;;;5016216;28;20531;-56
2024/02/11 11:47:10;;;;;;;18.70;8.25;;;;;;;;;;5015022;28;20058;-47
2024/02/11 11:50:09;;;;;;;17.35;8.90;;;;;;;;;;5015648;28;20058;-46
2024/02/11 11:53:01;;;;;;;16.60;7.93;;;;;;;;;;5013480;28;20064;-46
2024/02/11 11:55:57;;;;;;;17.55;7.82;;;;;;;;;;5006824;28;20063;-47
2024/02/11 11:58:51;;;;;;;8.43;4.72;;;;;;;;;;5004497;28;20071;-48
2024/02/11 12:01:44;;;;;;;15.35;7.60;;;;;;;;;;5003351;28;20423;-55
2024/02/11 12:04:38;;;;;;;15.02;6.95;;;;;;;;;;5007649;28;20061;-55
2024/02/11 12:07:30;;;;;;;15.17;6.93;;;;;;;;;;5004296;28;20056;-46
2024/02/11 12:10:21;;;;;;;15.15;8.20;;;;;;;;;;5000627;28;20060;-46
2024/02/11 12:13:17;;;;;;;16.70;7.63;;;;;;;;;;5004473;28;20049;-51
2024/02/11 12:16:18;;;;;;;13.80;7.32;;;;;;;;;;5003241;28;20057;-48
2024/02/11 12:19:01;;;;;;;12.23;7.25;;;;;;;;;;5003345;28;20077;-52
2024/02/11 12:21:55;;;;;;;13.25;5.63;;;;;;;;;;5005771;28;20123;-60
2024/02/11 12:24:42;;;;;;;12.80;7.27;;;;;;;;;;5005478;28;20100;-52
2024/02/11 12:27:36;;;;;;;11.23;6.50;;;;;;;;;;5004996;28;20061;-48
2024/02/11 12:30:24;;;;;;;16.13;7.22;;;;;;;;;;5009964;28;20053;-46
2024/02/11 12:33:18;;;;;;;13.70;6.82;;;;;;;;;;5007863;28;20080;-50
2024/02/11 12:36:12;;;;;;;11.45;5.78;;;;;;;;;;5015206;28;20050;-46
2024/02/11 12:39:07;;;;;;;9.18;4.93;;;;;;;;;;5011540;28;20065;-66
2024/02/11 12:41:55;;;;;;;10.83;6.37;;;;;;;;;;5009918;28;20072;-49
2024/02/11 12:44:48;;;;;;;9.57;4.38;;;;;;;;;;5012190;28;20787;-52
2024/02/11 12:47:44;;;;;;;10.13;5.32;;;;;;;;;;5014864;28;20144;-52
2024/02/11 12:50:30;;;;;;;9.18;5.38;;;;;;;;;;5011796;28;20053;-48
2024/02/11 12:53:24;;;;;;;13.98;6.50;;;;;;;;;;5016587;28;20042;-47
2024/02/11 12:56:11;;;;;;;10.30;5.53;;;;;;;;;;5016603;28;20050;-46
2024/02/11 12:59:11;;;;;;;9.45;5.75;;;;;;;;;;5010858;28;20081;-61
2024/02/11 13:01:58;;;;;;;11.80;5.47;;;;;;;;;;5011102;28;20484;-54
2024/02/11 13:04:52;;;;;;;9.80;5.93;;;;;;;;;;5014383;28;20050;-51
2024/02/11 13:07:40;;;;;;;12.40;5.30;;;;;;;;;;5012854;28;20182;-51
2024/02/11 13:10:34;;;;;;;9.82;5.32;;;;;;;;;;5013191;28;20053;-53
2024/02/11 13:13:22;;;;;;;10.70;5.07;;;;;;;;;;5010383;28;20177;-52
2024/02/11 13:16:16;;;;;;;10.57;5.53;;;;;;;;;;5009712;28;20149;-62
2024/02/11 13:19:05;;;;;;;9.57;5.10;;;;;;;;;;5003068;28;20147;-60
2024/02/11 13:21:57;;;;;;;10.10;5.30;;;;;;;;;;5011379;28;20091;-60
2024/02/11 13:24:43;;;;;;;8.98;3.80;;;;;;;;;;5011312;28;20432;-60
2024/02/11 13:27:37;;;;;;;10.00;5.90;;;;;;;;;;5012169;28;20057;-62
2024/02/11 13:30:25;;;;;;;7.68;5.10;;;;;;;;;;5002863;28;20057;-58
2024/02/11 13:33:25;;;;;;;9.65;5.40;;;;;;;;;;5010632;28;20128;-60
2024/02/11 13:36:10;;;;;;;9.48;5.80;;;;;;;;;;5009380;28;20127;-55
2024/02/11 13:39:03;;;;;;;10.40;5.70;;;;;;;;;;5009248;28;20066;-63
2024/02/11 13:41:51;;;;;;;10.25;5.07;;;;;;;;;;5013362;28;20061;-63
2024/02/11 13:44:44;;;;;;;12.75;5.63;;;;;;;;;;5011700;28;20054;-63
2024/02/11 13:47:34;;;;;;;9.85;5.72;;;;;;;;;;5011193;28;20138;-63
2024/02/11 13:50:26;;;;;;;6.35;3.75;;;;;;;;;;5015086;28;20049;-63
2024/02/11 13:53:13;;;;;;;11.98;6.18;;;;;;;;;;5007653;28;20054;-61
2024/02/11 13:56:07;;;;;;;9.80;6.38;;;;;;;;;;5012697;28;20054;-59
2024/02/11 13:59:13;;;;;;;11.00;6.50;;;;;;;;;;5010561;28;20151;-60
2024/02/11 14:02:01;;;;;;;12.68;6.38;;;;;;;;;;5017144;28;20124;-58
2024/02/11 14:04:56;;;;;;;11.43;5.47;;;;;;;;;;5015084;28;20046;-62
2024/02/11 14:07:44;;;;;;;5.15;3.40;;;;;;;;;;5014475;28;20079;-60
2024/02/11 14:10:37;;;;;;;11.55;6.53;;;;;;;;;;5013903;28;20057;-52
2024/02/11 14:13:31;;;;;;;10.93;6.05;;;;;;;;;;5009679;28;20057;-66
2024/02/11 14:16:24;;;;;;;11.75;6.55;;;;;;;;;;5012707;28;20140;-61
2024/02/11 14:19:12;;;;;;;12.73;6.50;;;;;;;;;;5012387;28;20491;-60
2024/02/11 14:22:06;;;;;;;12.85;5.95;;;;;;;;;;5006612;28;21563;-61
2024/02/11 14:24:53;;;;;;;12.38;6.22;;;;;;;;;;5008384;28;20087;-59
2024/02/11 14:27:47;;;;;;;12.23;6.50;;;;;;;;;;5010055;28;20416;-61
2024/02/11 14:30:35;;;;;;;12.77;6.30;;;;;;;;;;5005245;28;20608;-50
2024/02/11 14:33:28;;;;;;;11.85;7.07;;;;;;;;;;5012915;28;20484;-46
2024/02/11 14:36:16;;;;;;;17.75;5.90;;;;;;;;;;5013538;28;20057;-51
2024/02/11 14:39:09;;;;;;;9.68;5.00;;;;;;;;;;5013399;28;20065;-50
2024/02/11 14:41:57;;;;;;;10.90;6.43;;;;;;;;;;5013668;28;20085;-50
2024/02/11 14:44:52;;;;;;;9.82;5.40;;;;;;;;;;5016672;28;20463;-50
2024/02/11 14:47:38;;;;;;;12.20;7.25;;;;;;;;;;5009310;28;20068;-52
2024/02/11 14:50:31;;;;;;;13.38;6.72;;;;;;;;;;5013172;28;20085;-62
2024/02/11 14:53:19;;;;;;;13.65;6.32;;;;;;;;;;5012947;28;20059;-58
2024/02/11 14:56:14;;;;;;;15.80;6.80;;;;;;;;;;5013335;28;20061;-59
2024/02/11 14:59:06;;;;;;;14.85;6.80;;;;;;;;;;5013292;28;20062;-60
2024/02/11 15:02:00;;;;;;;;;;;;;;;;;;5009305;28;20056;-59
2024/02/11 15:04:49;;;;;;;12.13;6.20;;;;;;;;;;5009661;28;19929;-61
2024/02/11 15:07:41;;;;;;;12.27;6.32;;;;;;;;;;5010802;28;20053;-63
2024/02/11 15:10:28;;;;;;;13.73;7.15;;;;;;;;;;5005561;28;20046;-59
2024/02/11 15:13:22;;;;;;;14.32;6.93;;;;;;;;;;5010350;28;20076;-59
2024/02/11 15:16:10;;;;;;;14.93;6.57;;;;;;;;;;5007341;28;20049;-59
2024/02/11 15:19:03;;;;;;;15.68;7.65;;;;;;;;;;5010244;28;20061;-58
2024/02/11 15:21:51;;;;;;;14.13;6.85;;;;;;;;;;5009890;28;20069;-59
2024/02/11 15:24:46;;;;;;;14.75;7.38;;;;;;;;;;5010007;28;20053;-51
2024/02/11 15:27:31;;;;;;;12.55;7.25;;;;;;;;;;5008907;28;21283;-61
2024/02/11 15:30:26;;;;;;;9.77;5.32;;;;;;;;;;5007673;28;20058;-61
2024/02/11 15:33:13;;;;;;;14.05;7.03;;;;;;;;;;5010638;28;20065;-61
2024/02/11 15:36:07;;;;;;;12.80;6.78;;;;;;;;;;5013197;28;20042;-61
2024/02/11 15:39:01;;;;;;;14.65;6.95;;;;;;;;;;5008567;28;20113;-60
2024/02/11 15:41:54;;;;;;;16.33;7.25;;;;;;;;;;5013269;28;20097;-61
2024/02/11 15:44:49;;;;;;;12.88;7.55;;;;;;;;;;5015631;28;20183;-60
2024/02/11 15:47:37;;;;;;;13.50;6.85;;;;;;;;;;5008855;28;20056;-54
2024/02/11 15:50:30;;;;;;;13.25;6.88;;;;;;;;;;5011926;28;20506;-55
2024/02/11 15:53:25;;;;;;;12.38;5.63;;;;;;;;;;5010038;28;20085;-54
2024/02/11 15:56:11;;;;;;;12.40;7.47;;;;;;;;;;5011833;28;20738;-54
2024/02/11 15:59:11;;;;;;;15.40;7.25;;;;;;;;;;5010740;28;20854;-53
2024/02/11 16:01:59;;;;;;;14.32;6.38;;;;;;;;;;5003085;28;20064;-47
2024/02/11 16:04:53;;;;;;;17.70;8.40;;;;;;;;;;5004104;28;20045;-61
2024/02/11 16:07:42;;;;;;;13.70;6.88;;;;;;;;;;5010468;28;20068;-60
2024/02/11 16:10:33;;;;;;;12.30;6.28;;;;;;;;;;5012866;28;20061;-58
2024/02/11 16:13:21;;;;;;;11.85;6.30;;;;;;;;;;5011987;28;20060;-60
2024/02/11 16:16:15;;;;;;;8.35;5.65;;;;;;;;;;5009911;28;20060;-60
2024/02/11 16:19:02;;;;;;;14.25;6.70;;;;;;;;;;5007567;28;20057;-61
2024/02/11 16:21:59;;;;;;;13.90;7.25;;;;;;;;;;5006088;28;20061;-55
2024/02/11 16:24:47;;;;;;;10.13;5.82;;;;;;;;;;5009097;28;20050;-59
2024/02/11 16:27:41;;;;;;;12.52;6.18;;;;;;;;;;5005909;28;20141;-63
2024/02/11 16:30:28;;;;;;;11.40;5.90;;;;;;;;;;5007150;28;20190;-61
2024/02/11 16:33:24;;;;;;;12.57;5.85;;;;;;;;;;5011572;28;20480;-61
2024/02/11 16:36:10;;;;;;;9.98;5.75;;;;;;;;;;5012992;28;20080;-61
2024/02/11 16:39:04;;;;;;;13.95;6.50;;;;;;;;;;5013448;28;20080;-58
2024/02/11 16:41:52;;;;;;;11.23;5.60;;;;;;;;;;5008620;28;20492;-60
2024/02/11 16:44:49;;;;;;;11.88;4.90;;;;;;;;;;5010214;28;20311;-59
2024/02/11 16:47:37;;;;;;;10.70;6.13;;;;;;;;;;5009729;28;20103;-59
2024/02/11 16:50:51;;;;;;;11.35;6.13;;;;;;;;;;5010394;28;20517;-60